createdAt,value
2023-02-11T00:00:41.768Z,96.77
2023-02-11T00:03:08.659Z,96.05
2023-02-11T00:05:35.264Z,96.30
2023-02-11T00:08:01.712Z,96.13
2023-02-11T00:10:28.136Z,97.79
2023-02-11T00:12:54.589Z,97.73
2023-02-11T00:15:21.291Z,97.15
2023-02-11T00:17:47.714Z,95.60
2023-02-11T00:20:14.182Z,95.01
2023-02-11T00:22:40.632Z,95.67
2023-02-11T00:25:07.178Z,94.70
2023-02-11T00:27:33.625Z,94.81
2023-02-11T00:30:02.253Z,94.91
2023-02-11T00:32:28.756Z,94.99
2023-02-11T00:34:55.464Z,95.99
2023-02-11T00:37:22.426Z,95.39
2023-02-11T00:39:50.130Z,95.68
2023-02-11T00:42:16.919Z,94.91
2023-02-11T00:44:43.513Z,94.54
2023-02-11T00:47:09.950Z,96.32
2023-02-11T00:49:36.920Z,95.79
2023-02-11T00:52:03.585Z,95.58
2023-02-11T00:54:30.128Z,96.92
2023-02-11T00:56:56.557Z,96.69
2023-02-11T00:59:23.016Z,96.88
2023-02-11T01:01:49.509Z,96.50
2023-02-11T01:04:16.049Z,97.34
2023-02-11T01:06:42.560Z,96.03
2023-02-11T01:09:08.976Z,96.40
2023-02-11T01:11:35.700Z,96.14
2023-02-11T01:14:02.404Z,95.98
2023-02-11T01:16:28.805Z,95.38
2023-02-11T01:18:55.223Z,95.44
2023-02-11T01:21:21.695Z,96.42
2023-02-11T01:23:48.176Z,96.45
2023-02-11T01:26:14.590Z,96.23
2023-02-11T01:28:41.153Z,96.06
2023-02-11T01:31:07.658Z,96.38
2023-02-11T01:33:34.208Z,95.77
2023-02-11T01:36:03.160Z,95.88
2023-02-11T01:38:29.623Z,94.93
2023-02-11T01:41:02.660Z,94.80
2023-02-11T01:43:32.785Z,94.70
2023-02-11T01:46:05.509Z,95.71
2023-02-11T01:48:38.267Z,95.79
2023-02-11T01:51:09.143Z,96.71
2023-02-11T01:53:54.864Z,97.30
2023-02-11T01:56:39.882Z,96.87
2023-02-11T01:59:13.323Z,97.89
2023-02-11T02:01:40.666Z,97.97
2023-02-11T02:04:08.343Z,97.81
2023-02-11T02:06:44.533Z,97.97
2023-02-11T02:09:22.224Z,97.24
2023-02-11T02:11:49.039Z,96.46
2023-02-11T02:14:15.459Z,95.70
2023-02-11T02:16:41.968Z,96.50
2023-02-11T02:19:36.323Z,96.07
2023-02-11T02:22:22.182Z,97.24
2023-02-11T02:24:56.572Z,98.45
2023-02-11T02:27:41.583Z,97.62
2023-02-11T02:30:17.313Z,96.19
2023-02-11T02:33:16.761Z,97.26
2023-02-11T02:35:56.042Z,97.92
2023-02-11T02:38:34.794Z,97.28
2023-02-11T02:41:10.167Z,96.74
2023-02-11T02:43:42.102Z,97.04
2023-02-11T02:46:14.661Z,96.88
2023-02-11T02:48:41.309Z,96.79
2023-02-11T02:51:34.131Z,96.52
2023-02-11T02:54:20.749Z,95.83
2023-02-11T02:57:00.112Z,96.54
2023-02-11T02:59:46.500Z,96.03
2023-02-11T03:02:27.146Z,96.47
2023-02-11T03:04:56.869Z,96.21
2023-02-11T03:07:51.037Z,96.86
2023-02-11T03:10:21.726Z,96.21
2023-02-11T03:12:48.943Z,96.73
2023-02-11T03:15:17.239Z,95.67
2023-02-11T03:17:46.249Z,95.54
2023-02-11T03:20:14.777Z,95.87
2023-02-11T03:22:45.599Z,95.90
2023-02-11T03:25:12.022Z,95.12
2023-02-11T03:27:47.078Z,96.19
2023-02-11T03:30:18.003Z,96.10
2023-02-11T03:32:51.818Z,96.06
2023-02-11T03:35:23.173Z,97.03
2023-02-11T03:37:58.129Z,96.47
2023-02-11T03:40:34.526Z,96.08
2023-02-11T03:43:10.702Z,96.77
2023-02-11T03:45:37.766Z,96.11
2023-02-11T03:48:08.949Z,97.71
2023-02-11T03:50:36.367Z,96.81
2023-02-11T03:53:03.621Z,96.98
2023-02-11T03:55:30.809Z,97.02
2023-02-11T03:57:57.290Z,97.51
2023-02-11T04:00:36.450Z,97.26
2023-02-11T04:03:04.049Z,97.67
2023-02-11T04:05:30.492Z,99.05
2023-02-11T04:07:56.946Z,98.58
2023-02-11T04:10:23.413Z,99.00
2023-02-11T04:12:49.839Z,98.62
2023-02-11T04:15:16.403Z,98.63
2023-02-11T04:17:42.996Z,97.66
2023-02-11T04:20:09.923Z,98.63
2023-02-11T04:22:36.753Z,97.22
2023-02-11T04:25:04.451Z,97.33
2023-02-11T04:27:30.896Z,96.95
2023-02-11T04:29:57.277Z,97.20
2023-02-11T04:32:23.715Z,98.91
2023-02-11T04:34:50.192Z,98.13
2023-02-11T04:37:16.634Z,97.51
2023-02-11T04:39:43.175Z,97.83
2023-02-11T04:42:09.559Z,97.32
2023-02-11T04:44:35.949Z,98.38
2023-02-11T04:47:02.363Z,97.05
2023-02-11T04:49:31.490Z,96.42
2023-02-11T04:51:57.892Z,96.23
2023-02-11T04:54:24.412Z,96.83
2023-02-11T04:56:51.114Z,96.45
2023-02-11T04:59:17.605Z,97.77
2023-02-11T05:01:44.140Z,98.39
2023-02-11T05:04:10.725Z,98.29
2023-02-11T05:06:39.418Z,98.81
2023-02-11T05:09:05.886Z,99.09
2023-02-11T05:11:32.286Z,99.86
2023-02-11T05:13:58.681Z,100.00
2023-02-11T05:16:25.190Z,99.51
2023-02-11T05:18:52.690Z,99.46
2023-02-11T05:21:19.669Z,97.45
2023-02-11T05:23:46.446Z,97.80
2023-02-11T05:26:13.455Z,96.91
2023-02-11T05:28:40.242Z,96.82
2023-02-11T05:31:07.296Z,97.56
2023-02-11T05:33:33.934Z,97.74
2023-02-11T05:36:06.357Z,97.78
2023-02-11T05:38:33.312Z,96.90
2023-02-11T05:40:59.767Z,96.56
2023-02-11T05:43:26.260Z,96.83
2023-02-11T05:45:53.039Z,96.34
2023-02-11T05:48:19.813Z,97.60
2023-02-11T05:50:46.446Z,97.63
2023-02-11T05:53:12.970Z,96.92
2023-02-11T05:55:39.606Z,96.96
2023-02-11T05:58:06.725Z,97.54
2023-02-11T06:00:33.749Z,97.67
2023-02-11T06:03:00.307Z,97.65
2023-02-11T06:05:26.756Z,97.55
2023-02-11T06:07:53.330Z,98.57
2023-02-11T06:10:19.837Z,98.49
2023-02-11T06:12:46.338Z,97.91
2023-02-11T06:15:12.742Z,98.17
2023-02-11T06:17:39.146Z,96.93
2023-02-11T06:20:07.384Z,96.88
2023-02-11T06:22:35.052Z,96.76
2023-02-11T06:25:02.347Z,97.27
2023-02-11T06:27:29.665Z,96.84
2023-02-11T06:29:56.110Z,97.49
2023-02-11T06:32:42.177Z,97.23
2023-02-11T06:35:11.642Z,97.16
2023-02-11T06:37:38.425Z,97.12
2023-02-11T06:40:05.305Z,96.49
2023-02-11T06:42:31.790Z,96.03
2023-02-11T06:44:58.203Z,96.27
2023-02-11T06:47:24.627Z,96.74
2023-02-11T06:49:51.095Z,95.95
2023-02-11T06:52:17.555Z,96.90
2023-02-11T06:54:43.955Z,96.98
2023-02-11T06:57:10.367Z,96.57
2023-02-11T06:59:36.748Z,96.04
2023-02-11T07:02:03.274Z,96.69
2023-02-11T07:04:29.775Z,96.09
2023-02-11T07:06:56.194Z,95.93
2023-02-11T07:09:22.653Z,96.92
2023-02-11T07:11:49.126Z,96.36
2023-02-11T07:14:15.588Z,96.54
2023-02-11T07:16:41.994Z,96.83
2023-02-11T07:19:08.475Z,97.04
2023-02-11T07:21:35.039Z,96.22
2023-02-11T07:24:02.096Z,96.17
2023-02-11T07:26:29.212Z,96.52
2023-02-11T07:28:57.202Z,97.00
2023-02-11T07:31:25.995Z,97.29
2023-02-11T07:33:53.925Z,97.94
2023-02-11T07:36:21.056Z,97.33
2023-02-11T07:38:47.494Z,96.90
2023-02-11T07:41:16.540Z,97.36
2023-02-11T07:43:43.480Z,97.63
2023-02-11T07:46:21.791Z,97.28
2023-02-11T07:48:48.341Z,96.80
2023-02-11T07:51:31.061Z,95.89
2023-02-11T07:53:58.987Z,97.37
2023-02-11T07:56:25.997Z,96.74
2023-02-11T07:58:52.436Z,96.00
2023-02-11T08:01:25.374Z,96.46
2023-02-11T08:03:52.877Z,96.81
2023-02-11T08:06:20.640Z,95.94
2023-02-11T08:08:47.604Z,96.54
2023-02-11T08:11:16.963Z,95.96
2023-02-11T08:13:44.131Z,95.63
2023-02-11T08:16:19.222Z,95.22
2023-02-11T08:18:45.723Z,94.47
2023-02-11T08:21:12.336Z,94.67
2023-02-11T08:23:40.306Z,94.58
2023-02-11T08:26:10.452Z,94.05
2023-02-11T08:28:38.388Z,95.17
2023-02-11T08:31:15.771Z,94.05
2023-02-11T08:33:42.324Z,94.22
2023-02-11T08:36:10.498Z,93.80
2023-02-11T08:38:37.056Z,93.67
2023-02-11T08:41:04.986Z,92.60
2023-02-11T08:43:31.692Z,92.19
2023-02-11T08:46:00.153Z,91.58
2023-02-11T08:48:28.632Z,92.31
2023-02-11T08:50:56.045Z,92.23
2023-02-11T08:53:22.610Z,91.31
2023-02-11T08:55:54.046Z,91.52
2023-02-11T08:58:21.383Z,91.38
2023-02-11T09:00:49.293Z,90.24
2023-02-11T09:03:16.389Z,90.71
2023-02-11T09:05:48.163Z,90.06
2023-02-11T09:08:14.832Z,90.06
2023-02-11T09:10:41.471Z,90.77
2023-02-11T09:13:08.493Z,89.31
2023-02-11T09:15:35.185Z,89.23
2023-02-11T09:18:02.045Z,89.35
2023-02-11T09:20:28.467Z,88.69
2023-02-11T09:22:57.283Z,87.99
2023-02-11T09:25:23.949Z,88.74
2023-02-11T09:27:51.339Z,88.46
2023-02-11T09:30:17.896Z,87.96
2023-02-11T09:32:44.292Z,88.31
2023-02-11T09:35:10.724Z,88.24
2023-02-11T09:37:37.545Z,87.42
2023-02-11T09:40:04.678Z,88.48
2023-02-11T09:42:52.946Z,87.61
2023-02-11T09:45:24.916Z,87.69
2023-02-11T09:48:06.359Z,86.27
2023-02-11T09:50:40.123Z,86.47
2023-02-11T09:53:32.686Z,86.13
2023-02-11T09:56:02.246Z,86.64
2023-02-11T09:58:32.080Z,86.67
2023-02-11T10:01:27.418Z,86.57
2023-02-11T10:04:18.373Z,86.55
2023-02-11T10:06:48.261Z,86.93
2023-02-11T10:09:33.381Z,86.63
2023-02-11T10:12:21.778Z,86.04
2023-02-11T10:15:15.515Z,86.30
2023-02-11T10:18:14.178Z,88.61
2023-02-11T10:20:50.273Z,88.87
2023-02-11T10:23:21.487Z,88.43
2023-02-11T10:25:54.458Z,88.16
2023-02-11T10:28:34.793Z,87.00
2023-02-11T10:31:11.710Z,87.08
2023-02-11T10:34:11.791Z,87.14
2023-02-11T10:36:43.248Z,86.51
2023-02-11T10:39:16.113Z,85.98
2023-02-11T10:41:54.853Z,86.96
2023-02-11T10:44:27.542Z,88.02
2023-02-11T10:46:54.592Z,88.16
2023-02-11T10:49:41.930Z,87.50
2023-02-11T10:52:33.987Z,87.29
2023-02-11T10:55:15.298Z,88.00
2023-02-11T10:57:58.443Z,87.87
2023-02-11T11:00:36.333Z,87.11
2023-02-11T11:03:05.555Z,88.26
2023-02-11T11:05:36.656Z,88.50
2023-02-11T11:08:07.494Z,88.72
2023-02-11T11:10:43.565Z,88.06
2023-02-11T11:13:25.156Z,88.34
2023-02-11T11:16:13.108Z,88.13
2023-02-11T11:18:40.665Z,88.64
2023-02-11T11:21:12.282Z,88.46
2023-02-11T11:23:39.446Z,88.47
2023-02-11T11:26:15.189Z,88.56
2023-02-11T11:28:55.174Z,88.43
2023-02-11T11:31:24.784Z,88.81
2023-02-11T11:33:53.228Z,89.38
2023-02-11T11:36:31.992Z,89.38
2023-02-11T11:39:01.274Z,89.23
2023-02-11T11:41:30.913Z,89.36
2023-02-11T11:44:24.042Z,88.87
2023-02-11T11:47:04.787Z,89.32
2023-02-11T11:49:35.987Z,88.74
2023-02-11T11:52:19.851Z,87.92
2023-02-11T11:54:53.220Z,88.31
2023-02-11T11:57:23.509Z,88.29
2023-02-11T11:59:49.954Z,87.64
2023-02-11T12:02:22.686Z,87.05
2023-02-11T12:05:15.564Z,87.07
2023-02-11T12:07:54.123Z,86.17
2023-02-11T12:10:51.265Z,86.13
2023-02-11T12:13:26.999Z,86.65
2023-02-11T12:16:22.334Z,85.15
2023-02-11T12:18:57.955Z,85.78
2023-02-11T12:21:29.455Z,84.90
2023-02-11T12:24:41.455Z,84.89
2023-02-11T12:27:16.728Z,85.06
2023-02-11T12:29:49.144Z,85.68
2023-02-11T12:32:15.549Z,86.12
2023-02-11T12:34:51.053Z,86.27
2023-02-11T12:37:42.513Z,86.78
2023-02-11T12:40:20.205Z,86.50
2023-02-11T12:43:09.860Z,87.30
2023-02-11T12:46:02.574Z,87.46
2023-02-11T12:48:28.984Z,87.11
2023-02-11T12:51:04.480Z,88.17
2023-02-11T12:54:02.129Z,87.75
2023-02-11T12:56:38.681Z,87.22
2023-02-11T12:59:08.518Z,87.35
2023-02-11T13:01:41.008Z,87.33
2023-02-11T13:04:27.111Z,87.13
2023-02-11T13:07:02.186Z,87.18
2023-02-11T13:09:50.950Z,87.78
2023-02-11T13:12:36.046Z,87.85
2023-02-11T13:15:07.465Z,87.90
2023-02-11T13:17:41.183Z,87.67
2023-02-11T13:20:21.104Z,87.87
2023-02-11T13:23:05.820Z,86.95
2023-02-11T13:25:40.617Z,87.86
2023-02-11T13:28:28.664Z,87.88
2023-02-11T13:31:02.597Z,87.73
2023-02-11T13:33:37.398Z,87.18
2023-02-11T13:36:04.819Z,88.04
2023-02-11T13:38:32.402Z,87.47
2023-02-11T13:41:05.003Z,87.91
2023-02-11T13:43:33.617Z,87.04
2023-02-11T13:46:02.437Z,87.93
2023-02-11T13:48:30.983Z,87.06
2023-02-11T13:51:11.501Z,86.86
2023-02-11T13:53:56.846Z,87.46
2023-02-11T13:56:29.757Z,87.19
2023-02-11T13:59:00.146Z,86.60
2023-02-11T14:02:09.345Z,87.45
2023-02-11T14:04:54.427Z,88.85
2023-02-11T14:07:42.143Z,87.96
2023-02-11T14:10:42.431Z,88.04
2023-02-11T14:13:30.209Z,88.45
2023-02-11T14:16:20.295Z,88.90
2023-02-11T14:18:54.869Z,88.71
2023-02-11T14:21:27.286Z,88.96
2023-02-11T14:24:14.654Z,89.37
2023-02-11T14:26:48.104Z,90.17
2023-02-11T14:29:22.406Z,89.82
2023-02-11T14:32:08.873Z,89.36
2023-02-11T14:34:47.471Z,89.53
2023-02-11T14:37:50.319Z,89.12
2023-02-11T14:40:53.018Z,89.61
2023-02-11T14:43:29.708Z,89.52
2023-02-11T14:45:57.129Z,89.52
2023-02-11T14:48:30.332Z,89.79
2023-02-11T14:51:14.959Z,89.29
2023-02-11T14:53:45.859Z,90.52
2023-02-11T14:56:26.277Z,89.91
2023-02-11T14:58:54.266Z,90.49
2023-02-11T15:01:33.856Z,90.24
2023-02-11T15:04:02.771Z,91.09
2023-02-11T15:06:40.110Z,90.82
2023-02-11T15:09:45.254Z,90.75
2023-02-11T15:12:18.582Z,90.15
2023-02-11T15:14:49.803Z,89.19
2023-02-11T15:17:19.445Z,90.22
2023-02-11T15:19:48.444Z,89.77
2023-02-11T15:22:22.011Z,89.12
2023-02-11T15:25:19.746Z,90.73
2023-02-11T15:27:52.717Z,90.29
2023-02-11T15:30:22.065Z,90.76
2023-02-11T15:33:07.499Z,90.26
2023-02-11T15:35:37.509Z,90.32
2023-02-11T15:38:04.770Z,90.12
2023-02-11T15:40:33.422Z,90.00
2023-02-11T15:43:04.934Z,90.10
2023-02-11T15:45:43.864Z,90.46
2023-02-11T15:48:20.369Z,89.85
2023-02-11T15:50:55.917Z,89.99
2023-02-11T15:53:27.726Z,90.86
2023-02-11T15:56:01.985Z,89.70
2023-02-11T15:58:28.543Z,90.29
2023-02-11T16:00:59.576Z,90.63
2023-02-11T16:03:32.267Z,91.70
2023-02-11T16:06:21.393Z,91.12
2023-02-11T16:09:05.102Z,91.54
2023-02-11T16:11:34.292Z,91.42
2023-02-11T16:14:04.097Z,91.42
2023-02-11T16:16:33.775Z,91.15
2023-02-11T16:19:05.360Z,91.29
2023-02-11T16:21:42.336Z,90.84
2023-02-11T16:24:18.481Z,91.77
2023-02-11T16:26:49.127Z,91.09
2023-02-11T16:29:17.743Z,91.49
2023-02-11T16:31:46.167Z,91.58
2023-02-11T16:34:21.489Z,91.30
2023-02-11T16:36:49.108Z,93.51
2023-02-11T16:39:16.834Z,93.62
2023-02-11T16:41:43.540Z,93.68
2023-02-11T16:44:09.965Z,93.71
2023-02-11T16:46:37.053Z,93.58
2023-02-11T16:49:19.699Z,93.63
2023-02-11T16:51:48.253Z,93.44
2023-02-11T16:54:16.318Z,94.50
2023-02-11T16:56:43.138Z,93.90
2023-02-11T16:59:09.918Z,94.56
2023-02-11T17:01:38.225Z,95.37
2023-02-11T17:04:05.660Z,95.81
2023-02-11T17:06:33.821Z,96.13
2023-02-11T17:09:00.403Z,94.97
2023-02-11T17:11:26.856Z,95.40
2023-02-11T17:13:53.291Z,95.44
2023-02-11T17:16:22.536Z,96.08
2023-02-11T17:18:49.509Z,96.07
2023-02-11T17:21:16.215Z,96.28
2023-02-11T17:23:42.798Z,96.06
2023-02-11T17:26:09.474Z,96.67
2023-02-11T17:28:35.971Z,95.54
2023-02-11T17:31:07.112Z,96.04
2023-02-11T17:33:36.120Z,96.03
2023-02-11T17:36:07.512Z,95.23
2023-02-11T17:38:34.782Z,95.25
2023-02-11T17:41:02.144Z,95.17
2023-02-11T17:43:28.729Z,94.77
2023-02-11T17:45:55.268Z,94.76
2023-02-11T17:48:21.818Z,94.80
2023-02-11T17:50:48.283Z,94.92
2023-02-11T17:53:14.796Z,94.21
2023-02-11T17:55:41.257Z,94.41
2023-02-11T17:58:07.652Z,94.79
2023-02-11T18:00:34.165Z,93.88
2023-02-11T18:03:03.639Z,94.06
2023-02-11T18:05:36.786Z,93.64
2023-02-11T18:08:05.260Z,93.55
2023-02-11T18:10:33.433Z,94.00
2023-02-11T18:13:00.892Z,93.38
2023-02-11T18:15:27.331Z,93.47
2023-02-11T18:17:53.766Z,93.22
2023-02-11T18:20:20.435Z,93.38
2023-02-11T18:22:46.826Z,93.33
2023-02-11T18:25:16.462Z,93.83
2023-02-11T18:27:43.013Z,93.16
2023-02-11T18:30:14.824Z,93.29
2023-02-11T18:32:41.530Z,93.06
2023-02-11T18:35:14.839Z,93.39
2023-02-11T18:37:42.466Z,92.92
2023-02-11T18:40:10.299Z,93.97
2023-02-11T18:42:36.788Z,93.63
2023-02-11T18:45:04.654Z,93.55
2023-02-11T18:47:31.457Z,93.81
2023-02-11T18:49:57.861Z,94.25
2023-02-11T18:52:24.276Z,94.69
2023-02-11T18:54:52.235Z,94.90
2023-02-11T18:57:18.696Z,95.14
2023-02-11T18:59:45.111Z,94.96
2023-02-11T19:02:11.646Z,94.77
2023-02-11T19:04:38.319Z,94.64
2023-02-11T19:07:04.815Z,95.10
2023-02-11T19:09:31.360Z,95.55
2023-02-11T19:11:59.786Z,95.33
2023-02-11T19:14:36.999Z,95.07
2023-02-11T19:17:06.073Z,95.91
2023-02-11T19:19:34.332Z,95.98
2023-02-11T19:22:01.583Z,96.37
2023-02-11T19:24:29.227Z,95.87
2023-02-11T19:27:01.222Z,95.90
2023-02-11T19:29:28.704Z,95.84
2023-02-11T19:31:55.674Z,96.41
2023-02-11T19:34:22.281Z,95.91
2023-02-11T19:36:49.625Z,96.01
2023-02-11T19:39:16.441Z,95.86
2023-02-11T19:41:43.015Z,96.19
2023-02-11T19:44:09.895Z,95.98
2023-02-11T19:46:38.327Z,95.49
2023-02-11T19:49:05.221Z,96.12
2023-02-11T19:51:39.024Z,95.81
2023-02-11T19:54:06.746Z,96.09
2023-02-11T19:56:33.234Z,96.39
2023-02-11T19:59:02.004Z,96.09
2023-02-11T20:01:28.430Z,96.44
2023-02-11T20:03:57.185Z,96.71
2023-02-11T20:06:26.301Z,96.11
2023-02-11T20:08:58.779Z,96.48
2023-02-11T20:11:26.868Z,97.18
2023-02-11T20:13:53.694Z,96.52
2023-02-11T20:16:21.828Z,96.40
2023-02-11T20:18:49.319Z,96.82
2023-02-11T20:21:33.809Z,96.85
2023-02-11T20:24:01.062Z,96.76
2023-02-11T20:26:32.152Z,97.06
2023-02-11T20:29:02.175Z,97.18
2023-02-11T20:31:33.109Z,96.79
2023-02-11T20:34:01.041Z,96.35
2023-02-11T20:36:31.851Z,96.52
2023-02-11T20:38:59.792Z,97.00
2023-02-11T20:41:29.338Z,97.32
2023-02-11T20:43:56.040Z,96.69
2023-02-11T20:46:24.511Z,96.13
2023-02-11T20:48:52.332Z,97.17
2023-02-11T20:51:22.927Z,96.65
2023-02-11T20:53:51.237Z,96.48
2023-02-11T20:56:20.230Z,96.43
2023-02-11T20:58:47.062Z,97.04
2023-02-11T21:01:18.393Z,96.23
2023-02-11T21:03:49.619Z,96.49
2023-02-11T21:06:16.338Z,96.35
2023-02-11T21:08:42.771Z,96.67
2023-02-11T21:11:09.296Z,96.80
2023-02-11T21:13:36.989Z,96.89
2023-02-11T21:16:03.782Z,96.64
2023-02-11T21:18:30.286Z,96.71
2023-02-11T21:20:57.392Z,96.23
2023-02-11T21:23:24.740Z,96.18
2023-02-11T21:25:53.267Z,96.38
2023-02-11T21:28:23.912Z,96.51
2023-02-11T21:30:50.366Z,96.90
2023-02-11T21:33:16.825Z,97.38
2023-02-11T21:35:43.334Z,97.10
2023-02-11T21:38:09.729Z,97.17
2023-02-11T21:40:36.274Z,96.67
2023-02-11T21:43:02.677Z,97.45
2023-02-11T21:45:31.409Z,97.03
2023-02-11T21:47:58.915Z,96.96
2023-02-11T21:50:25.316Z,96.89
2023-02-11T21:52:52.881Z,98.30
2023-02-11T21:55:19.311Z,97.82
2023-02-11T21:57:45.706Z,97.68
2023-02-11T22:00:12.938Z,98.08
2023-02-11T22:02:39.387Z,97.38
2023-02-11T22:05:06.093Z,98.60
2023-02-11T22:07:35.148Z,98.01
2023-02-11T22:10:01.588Z,98.58
2023-02-11T22:12:27.996Z,98.40
2023-02-11T22:14:54.379Z,98.29
2023-02-11T22:17:20.936Z,98.66
2023-02-11T22:19:47.339Z,98.28
2023-02-11T22:22:18.084Z,98.52
2023-02-11T22:24:47.924Z,98.22
2023-02-11T22:27:15.284Z,98.38
2023-02-11T22:29:41.977Z,97.77
2023-02-11T22:32:08.995Z,97.75
2023-02-11T22:34:35.788Z,97.82
2023-02-11T22:37:04.927Z,97.34
2023-02-11T22:39:31.388Z,97.46
2023-02-11T22:41:57.838Z,97.89
2023-02-11T22:44:24.910Z,97.90
2023-02-11T22:46:51.906Z,97.72
2023-02-11T22:49:19.962Z,97.64
2023-02-11T22:51:46.565Z,97.20
2023-02-11T22:54:16.439Z,97.64
2023-02-11T22:56:43.363Z,97.45
2023-02-11T22:59:15.336Z,97.63
2023-02-11T23:01:42.683Z,97.96
2023-02-11T23:04:11.902Z,97.50
2023-02-11T23:06:38.358Z,96.91
2023-02-11T23:09:08.882Z,97.50
2023-02-11T23:11:35.641Z,97.84
2023-02-11T23:14:02.541Z,98.09
2023-02-11T23:16:33.928Z,98.15
2023-02-11T23:19:02.192Z,98.17
2023-02-11T23:21:31.085Z,97.71
2023-02-11T23:24:04.083Z,97.81
2023-02-11T23:26:30.533Z,97.41
2023-02-11T23:28:58.408Z,97.23
2023-02-11T23:31:26.149Z,97.79
2023-02-11T23:33:52.738Z,97.74
2023-02-11T23:36:20.684Z,96.87
2023-02-11T23:38:47.866Z,97.66
2023-02-11T23:41:14.770Z,96.78
2023-02-11T23:43:41.525Z,97.00
2023-02-11T23:46:08.600Z,97.49
2023-02-11T23:48:36.542Z,97.08
2023-02-11T23:51:03.573Z,97.01
2023-02-11T23:53:30.006Z,97.30
2023-02-11T23:55:56.738Z,97.50
2023-02-11T23:58:23.258Z,97.63
